createdAt,value
2018-09-20T00:01:14.702Z,17.36
2018-09-20T00:03:42.286Z,17.36
2018-09-20T00:06:09.861Z,17.39
2018-09-20T00:08:37.375Z,17.39
2018-09-20T00:11:04.882Z,17.37
2018-09-20T00:13:32.440Z,17.37
2018-09-20T00:15:59.969Z,17.36
2018-09-20T00:18:27.784Z,17.35
2018-09-20T00:20:55.303Z,17.33
2018-09-20T00:23:22.870Z,17.28
2018-09-20T00:25:50.418Z,17.29
2018-09-20T00:28:17.938Z,17.23
2018-09-20T00:30:45.513Z,17.19
2018-09-20T00:33:13.053Z,17.19
2018-09-20T00:35:40.586Z,17.13
2018-09-20T00:38:08.469Z,17.16
2018-09-20T00:40:35.987Z,17.13
2018-09-20T00:43:03.529Z,17.08
2018-09-20T00:45:32.422Z,17.11
2018-09-20T00:47:59.938Z,17.09
2018-09-20T00:50:27.475Z,17.04
2018-09-20T00:52:55.058Z,17.05
2018-09-20T00:55:22.668Z,17.05
2018-09-20T00:57:50.191Z,16.94
2018-09-20T01:00:17.754Z,16.92
2018-09-20T01:02:45.322Z,16.90
2018-09-20T01:05:12.851Z,16.88
2018-09-20T01:07:40.489Z,16.83
2018-09-20T01:10:08.018Z,16.84
2018-09-20T01:12:36.607Z,16.88
2018-09-20T01:15:04.710Z,16.81
2018-09-20T01:17:32.219Z,16.85
2018-09-20T01:19:59.780Z,16.81
2018-09-20T01:22:27.294Z,16.79
2018-09-20T01:24:54.879Z,16.74
2018-09-20T01:27:22.397Z,16.65
2018-09-20T01:29:49.902Z,16.63
2018-09-20T01:32:17.461Z,16.82
2018-09-20T01:34:44.992Z,16.89
2018-09-20T01:37:12.518Z,16.82
2018-09-20T01:39:40.075Z,16.82
2018-09-20T01:42:07.585Z,16.68
2018-09-20T01:44:35.111Z,16.71
2018-09-20T01:47:02.882Z,16.54
2018-09-20T01:49:30.405Z,16.42
2018-09-20T01:51:57.934Z,16.49
2018-09-20T01:54:25.442Z,16.63
2018-09-20T01:56:52.979Z,16.63
2018-09-20T01:59:20.507Z,16.52
2018-09-20T02:01:48.330Z,16.59
2018-09-20T02:04:15.845Z,16.65
2018-09-20T02:06:43.376Z,16.52
2018-09-20T02:09:11.098Z,16.34
2018-09-20T02:11:39.060Z,16.33
2018-09-20T02:14:07.331Z,16.16
2018-09-20T02:16:34.973Z,16.09
2018-09-20T02:19:02.595Z,16.09
2018-09-20T02:21:30.127Z,16.16
2018-09-20T02:23:57.638Z,16.10
2018-09-20T02:26:25.212Z,16.11
2018-09-20T02:28:52.779Z,16.05
2018-09-20T02:31:20.306Z,16.08
2018-09-20T02:33:47.973Z,16.37
2018-09-20T02:36:15.480Z,16.20
2018-09-20T02:38:43.083Z,16.04
2018-09-20T02:41:10.726Z,16.04
2018-09-20T02:43:38.312Z,15.94
2018-09-20T02:46:05.886Z,15.91
2018-09-20T02:48:33.397Z,15.93
2018-09-20T02:51:00.935Z,15.94
2018-09-20T02:53:28.835Z,15.88
2018-09-20T02:55:56.346Z,15.87
2018-09-20T02:58:23.886Z,15.94
2018-09-20T03:00:51.435Z,15.85
2018-09-20T03:03:18.957Z,15.81
2018-09-20T03:05:46.482Z,15.75
2018-09-20T03:08:14.041Z,15.74
2018-09-20T03:10:41.599Z,15.72
2018-09-20T03:13:09.213Z,15.69
2018-09-20T03:15:36.771Z,15.69
2018-09-20T03:18:04.334Z,15.71
2018-09-20T03:20:31.975Z,15.68
2018-09-20T03:22:59.563Z,15.72
2018-09-20T03:25:27.143Z,15.58
2018-09-20T03:27:54.816Z,15.57
2018-09-20T03:30:22.935Z,15.57
2018-09-20T03:32:50.376Z,15.54
2018-09-20T03:35:17.927Z,15.50
2018-09-20T03:37:45.502Z,15.53
2018-09-20T03:40:13.251Z,15.51
2018-09-20T03:42:40.766Z,15.49
2018-09-20T03:45:08.312Z,15.44
2018-09-20T03:47:35.856Z,15.41
2018-09-20T03:50:03.447Z,15.41
2018-09-20T03:52:30.959Z,15.37
2018-09-20T03:54:58.484Z,15.37
2018-09-20T03:57:25.994Z,15.35
2018-09-20T03:59:53.640Z,15.33
2018-09-20T04:02:21.190Z,15.28
2018-09-20T04:04:48.775Z,15.26
2018-09-20T04:07:16.318Z,15.26
2018-09-20T04:09:43.881Z,15.31
2018-09-20T04:12:11.455Z,15.26
2018-09-20T04:14:39.006Z,15.24
2018-09-20T04:17:06.574Z,15.24
2018-09-20T04:19:34.137Z,15.23
2018-09-20T04:22:01.761Z,15.31
2018-09-20T04:24:29.277Z,15.30
2018-09-20T04:26:57.191Z,15.31
2018-09-20T04:29:24.707Z,15.32
2018-09-20T04:31:52.278Z,15.21
2018-09-20T04:34:19.805Z,15.16
2018-09-20T04:36:47.342Z,15.15
2018-09-20T04:39:14.978Z,15.32
2018-09-20T04:41:42.528Z,15.25
2018-09-20T04:44:10.106Z,15.37
2018-09-20T04:46:37.721Z,15.17
2018-09-20T04:49:05.639Z,15.08
2018-09-20T04:51:33.186Z,15.05
2018-09-20T04:54:00.757Z,15.03
2018-09-20T04:56:28.796Z,15.04
2018-09-20T04:58:56.342Z,15.08
2018-09-20T05:01:23.875Z,15.09
2018-09-20T05:03:51.699Z,15.11
2018-09-20T05:06:19.246Z,15.10
2018-09-20T05:08:46.774Z,15.08
2018-09-20T05:11:14.326Z,15.10
2018-09-20T05:13:41.854Z,15.14
2018-09-20T05:16:09.405Z,15.17
2018-09-20T05:18:36.958Z,15.08
2018-09-20T05:21:04.522Z,15.05
2018-09-20T05:23:32.099Z,15.09
2018-09-20T05:25:59.896Z,15.12
2018-09-20T05:28:27.414Z,15.16
2018-09-20T05:30:54.938Z,15.16
2018-09-20T05:33:22.554Z,15.22
2018-09-20T05:35:50.054Z,15.25
2018-09-20T05:38:17.843Z,15.30
2018-09-20T05:40:45.362Z,15.40
2018-09-20T05:43:12.878Z,15.54
2018-09-20T05:45:40.525Z,15.82
2018-09-20T05:48:08.055Z,15.92
2018-09-20T05:50:36.658Z,16.06
2018-09-20T05:53:04.231Z,16.20
2018-09-20T05:55:31.759Z,16.51
2018-09-20T05:57:59.378Z,16.73
2018-09-20T06:00:26.902Z,17.01
2018-09-20T06:02:54.410Z,17.26
2018-09-20T06:05:21.958Z,17.28
2018-09-20T06:07:49.486Z,17.42
2018-09-20T06:10:17.040Z,17.61
2018-09-20T06:12:44.647Z,17.78
2018-09-20T06:15:12.171Z,17.99
2018-09-20T06:17:39.699Z,18.35
2018-09-20T06:20:07.274Z,18.63
2018-09-20T06:22:34.814Z,18.84
2018-09-20T06:25:02.422Z,19.27
2018-09-20T06:27:29.956Z,19.64
2018-09-20T06:29:57.495Z,20.10
2018-09-20T06:32:25.090Z,20.23
2018-09-20T06:34:52.715Z,20.31
2018-09-20T06:37:20.234Z,20.49
2018-09-20T06:39:47.782Z,20.74
2018-09-20T06:42:15.295Z,20.80
2018-09-20T06:44:42.846Z,20.95
2018-09-20T06:47:10.395Z,20.93
2018-09-20T06:49:37.968Z,21.11
2018-09-20T06:52:05.638Z,21.34
2018-09-20T06:54:33.227Z,21.70
2018-09-20T06:57:00.771Z,21.56
2018-09-20T06:59:28.338Z,21.64
2018-09-20T07:01:55.865Z,21.66
2018-09-20T07:04:23.374Z,21.91
2018-09-20T07:06:50.921Z,22.21
2018-09-20T07:09:18.438Z,22.49
2018-09-20T07:11:45.995Z,22.73
2018-09-20T07:14:13.524Z,23.16
2018-09-20T07:16:41.073Z,23.71
2018-09-20T07:19:08.703Z,24.27
2018-09-20T07:21:36.242Z,24.73
2018-09-20T07:24:03.897Z,25.07
2018-09-20T07:26:31.436Z,25.84
2018-09-20T07:28:58.993Z,26.67
2018-09-20T07:31:26.577Z,27.50
2018-09-20T07:33:54.111Z,28.26
2018-09-20T07:36:21.759Z,29.11
2018-09-20T07:38:49.306Z,29.68
2018-09-20T07:41:16.831Z,30.25
2018-09-20T07:43:44.567Z,30.42
2018-09-20T07:46:12.158Z,30.47
2018-09-20T07:48:39.671Z,30.32
2018-09-20T07:51:07.366Z,30.05
2018-09-20T07:53:34.915Z,30.45
2018-09-20T07:56:02.455Z,30.22
2018-09-20T07:58:30.754Z,30.61
2018-09-20T08:00:58.271Z,30.43
2018-09-20T08:03:25.798Z,30.74
2018-09-20T08:05:53.342Z,31.44
2018-09-20T08:08:20.892Z,31.23
2018-09-20T08:10:48.438Z,31.26
2018-09-20T08:13:15.993Z,32.30
2018-09-20T08:15:43.762Z,32.88
2018-09-20T08:18:11.394Z,33.75
2018-09-20T08:20:38.919Z,33.70
2018-09-20T08:23:06.494Z,33.51
2018-09-20T08:25:34.030Z,33.05
2018-09-20T08:28:01.587Z,34.48
2018-09-20T08:30:29.130Z,34.69
2018-09-20T08:32:56.671Z,34.68
2018-09-20T08:35:24.223Z,34.98
2018-09-20T08:37:51.850Z,35.34
2018-09-20T08:40:19.310Z,35.11
2018-09-20T08:42:46.888Z,35.25
2018-09-20T08:45:14.514Z,35.76
2018-09-20T08:47:42.126Z,35.93
2018-09-20T08:50:09.678Z,35.87
2018-09-20T08:52:37.198Z,35.73
2018-09-20T08:55:04.810Z,36.46
2018-09-20T08:58:03.482Z,35.71
2018-09-20T09:00:31.019Z,36.51
2018-09-20T09:02:58.544Z,35.36
2018-09-20T09:05:26.075Z,36.04
2018-09-20T09:07:53.613Z,36.64
2018-09-20T09:10:21.221Z,36.21
2018-09-20T09:12:48.779Z,36.69
2018-09-20T09:15:16.287Z,36.79
2018-09-20T09:17:43.882Z,37.18
2018-09-20T09:20:11.418Z,37.33
2018-09-20T09:22:38.935Z,38.38
2018-09-20T09:25:06.855Z,39.03
2018-09-20T09:27:34.414Z,38.60
2018-09-20T09:30:02.037Z,38.91
2018-09-20T09:32:29.614Z,39.19
2018-09-20T09:34:57.149Z,39.69
2018-09-20T09:37:24.696Z,39.73
2018-09-20T09:39:52.274Z,39.31
2018-09-20T09:42:19.899Z,39.29
2018-09-20T09:44:47.571Z,39.04
2018-09-20T09:47:15.182Z,38.36
2018-09-20T09:49:42.738Z,38.59
2018-09-20T09:52:10.337Z,38.59
2018-09-20T09:54:37.927Z,37.91
2018-09-20T09:57:06.164Z,38.20
2018-09-20T09:59:33.963Z,38.41
2018-09-20T10:02:01.559Z,38.00
2018-09-20T10:04:29.198Z,38.73
2018-09-20T10:06:56.814Z,39.34
2018-09-20T10:09:24.338Z,38.68
2018-09-20T10:11:52.336Z,39.50
2018-09-20T10:14:19.910Z,40.14
2018-09-20T10:16:47.426Z,39.03
2018-09-20T10:19:15.000Z,39.11
2018-09-20T10:21:42.538Z,38.48
2018-09-20T10:24:10.379Z,38.17
2018-09-20T10:26:37.911Z,38.87
2018-09-20T10:29:05.431Z,39.55
2018-09-20T10:31:34.183Z,38.48
2018-09-20T10:34:01.725Z,38.18
2018-09-20T10:36:29.211Z,37.98
2018-09-20T10:38:56.785Z,37.59
2018-09-20T10:41:24.429Z,38.19
2018-09-20T10:43:51.975Z,37.43
2018-09-20T10:46:19.513Z,37.99
2018-09-20T10:48:47.235Z,38.50
2018-09-20T10:51:14.763Z,37.64
2018-09-20T10:53:42.345Z,38.17
2018-09-20T10:56:09.990Z,37.89
2018-09-20T10:58:37.541Z,37.69
2018-09-20T11:01:05.082Z,37.11
2018-09-20T11:03:32.675Z,36.31
2018-09-20T11:06:00.227Z,35.34
2018-09-20T11:08:27.806Z,34.91
2018-09-20T11:10:55.451Z,33.45
2018-09-20T11:13:22.958Z,33.23
2018-09-20T11:15:50.644Z,33.46
2018-09-20T11:18:18.167Z,33.07
2018-09-20T11:20:45.767Z,32.98
2018-09-20T11:23:13.338Z,33.12
2018-09-20T11:25:40.865Z,33.03
2018-09-20T11:28:08.421Z,33.04
2018-09-20T11:30:35.931Z,33.18
2018-09-20T11:33:03.550Z,32.86
2018-09-20T11:35:31.081Z,33.13
2018-09-20T11:37:58.662Z,33.04
2018-09-20T11:40:26.226Z,32.50
2018-09-20T11:42:53.762Z,32.84
2018-09-20T11:45:21.345Z,32.74
2018-09-20T11:47:49.171Z,32.66
2018-09-20T11:50:16.718Z,32.49
2018-09-20T11:52:44.263Z,32.37
2018-09-20T11:55:11.826Z,32.26
2018-09-20T11:57:39.378Z,32.27
2018-09-20T12:00:06.933Z,32.18
2018-09-20T12:02:34.502Z,31.95
2018-09-20T12:05:02.090Z,32.23
2018-09-20T12:07:29.690Z,31.82
2018-09-20T12:09:57.265Z,31.89
2018-09-20T12:12:24.807Z,31.59
2018-09-20T12:14:52.375Z,31.71
2018-09-20T12:17:20.294Z,31.74
2018-09-20T12:19:47.860Z,31.51
2018-09-20T12:22:15.394Z,31.29
2018-09-20T12:24:42.936Z,31.17
2018-09-20T12:27:10.489Z,30.83
2018-09-20T12:29:39.371Z,30.53
2018-09-20T12:32:07.040Z,30.38
2018-09-20T12:34:34.640Z,30.48
2018-09-20T12:37:02.195Z,30.20
2018-09-20T12:39:29.728Z,30.25
2018-09-20T12:41:57.279Z,30.30
2018-09-20T12:44:24.834Z,30.44
2018-09-20T12:46:52.444Z,30.56
2018-09-20T12:49:19.970Z,30.49
2018-09-20T12:51:47.598Z,30.33
2018-09-20T12:54:15.138Z,30.33
2018-09-20T12:56:42.694Z,30.41
2018-09-20T12:59:10.237Z,30.49
2018-09-20T13:01:37.819Z,30.57
2018-09-20T13:04:05.370Z,30.49
2018-09-20T13:06:33.038Z,30.27
2018-09-20T13:09:00.587Z,30.40
2018-09-20T13:11:28.135Z,30.08
2018-09-20T13:13:55.978Z,30.00
2018-09-20T13:16:23.639Z,29.90
2018-09-20T13:18:51.166Z,30.00
2018-09-20T13:21:18.726Z,30.04
2018-09-20T13:23:46.259Z,30.09
2018-09-20T13:26:14.091Z,29.84
2018-09-20T13:28:41.663Z,29.92
2018-09-20T13:31:09.211Z,29.92
2018-09-20T13:33:36.737Z,29.77
2018-09-20T13:36:04.272Z,29.99
2018-09-20T13:38:31.942Z,29.59
2018-09-20T13:40:59.495Z,29.60
2018-09-20T13:43:27.129Z,29.59
2018-09-20T13:45:54.649Z,29.64
2018-09-20T13:48:22.185Z,29.51
2018-09-20T13:50:49.755Z,29.44
2018-09-20T13:53:17.349Z,29.26
2018-09-20T13:55:45.222Z,29.00
2018-09-20T13:58:12.771Z,29.06
2018-09-20T14:00:40.401Z,29.08
2018-09-20T14:03:07.947Z,28.99
2018-09-20T14:05:35.501Z,29.03
2018-09-20T14:08:03.134Z,29.10
2018-09-20T14:10:30.668Z,29.17
2018-09-20T14:12:58.213Z,29.20
2018-09-20T14:15:25.872Z,28.99
2018-09-20T14:17:53.366Z,28.97
2018-09-20T14:21:06.298Z,28.64
2018-09-20T14:23:33.879Z,28.70
2018-09-20T14:26:01.441Z,28.75
2018-09-20T14:28:28.997Z,28.65
2018-09-20T14:30:56.522Z,28.61
2018-09-20T14:33:24.099Z,28.46
2018-09-20T14:35:51.682Z,28.35
2018-09-20T14:38:19.239Z,28.22
2018-09-20T14:40:46.799Z,28.27
2018-09-20T14:43:14.378Z,28.26
2018-09-20T14:45:41.931Z,28.23
2018-09-20T14:48:09.552Z,28.31
2018-09-20T14:50:37.185Z,28.28
2018-09-20T14:53:05.142Z,28.20
2018-09-20T14:55:32.726Z,28.25
2018-09-20T14:58:00.258Z,28.30
2018-09-20T15:00:27.838Z,28.19
2018-09-20T15:02:55.549Z,28.15
2018-09-20T15:05:23.164Z,28.21
2018-09-20T15:07:50.759Z,28.00
2018-09-20T15:10:18.553Z,27.95
2018-09-20T15:12:46.123Z,28.06
2018-09-20T15:15:13.784Z,27.85
2018-09-20T15:17:41.309Z,27.61
2018-09-20T15:20:08.879Z,27.70
2018-09-20T15:22:36.482Z,27.56
2018-09-20T15:25:04.288Z,27.72
2018-09-20T15:27:31.854Z,27.75
2018-09-20T15:29:59.426Z,27.84
2018-09-20T15:32:26.967Z,27.75
2018-09-20T15:34:54.494Z,27.64
2018-09-20T15:37:22.049Z,27.79
2018-09-20T15:39:49.656Z,27.81
2018-09-20T15:42:17.434Z,27.69
2018-09-20T15:44:45.103Z,27.67
2018-09-20T15:47:12.646Z,27.56
2018-09-20T15:49:40.663Z,27.41
2018-09-20T15:52:08.183Z,27.42
2018-09-20T15:54:35.818Z,27.39
2018-09-20T15:57:03.395Z,27.47
2018-09-20T15:59:30.963Z,27.46
2018-09-20T16:01:58.852Z,27.42
2018-09-20T16:04:26.404Z,27.33
2018-09-20T16:06:54.046Z,27.31
2018-09-20T16:09:21.632Z,27.10
2018-09-20T16:11:49.188Z,27.17
2018-09-20T16:14:16.775Z,27.15
2018-09-20T16:16:44.350Z,27.13
2018-09-20T16:19:11.875Z,27.22
2018-09-20T16:21:39.445Z,27.13
2018-09-20T16:24:07.029Z,27.02
2018-09-20T16:26:34.834Z,27.05
2018-09-20T16:29:07.039Z,26.92
2018-09-20T16:31:40.222Z,26.85
2018-09-20T16:34:17.235Z,26.86
2018-09-20T16:36:52.374Z,26.79
2018-09-20T16:39:20.972Z,26.71
2018-09-20T16:41:49.254Z,26.72
2018-09-20T16:44:16.875Z,26.69
2018-09-20T16:46:44.466Z,26.62
2018-09-20T16:49:12.027Z,26.62
2018-09-20T16:51:39.696Z,26.55
2018-09-20T16:54:07.258Z,26.46
2018-09-20T16:56:34.817Z,26.38
2018-09-20T16:59:02.429Z,26.34
2018-09-20T17:01:29.976Z,26.21
2018-09-20T17:03:57.550Z,26.20
2018-09-20T17:06:25.075Z,26.08
2018-09-20T17:08:52.694Z,26.00
2018-09-20T17:11:20.255Z,25.94
2018-09-20T17:13:48.007Z,25.94
2018-09-20T17:16:15.629Z,25.82
2018-09-20T17:18:43.157Z,25.72
2018-09-20T17:21:10.752Z,25.62
2018-09-20T17:23:38.710Z,25.53
2018-09-20T17:26:06.451Z,25.42
2018-09-20T17:28:34.077Z,25.36
2018-09-20T17:31:01.649Z,25.29
2018-09-20T17:33:29.216Z,25.35
2018-09-20T17:35:56.812Z,25.19
2018-09-20T17:38:24.639Z,25.02
2018-09-20T17:40:55.756Z,25.07
2018-09-20T17:43:28.982Z,25.00
2018-09-20T17:45:56.547Z,24.85
2018-09-20T17:48:24.097Z,24.53
2018-09-20T17:50:51.989Z,24.47
2018-09-20T17:53:19.747Z,24.25
2018-09-20T17:55:47.543Z,23.97
2018-09-20T17:58:15.404Z,23.70
2018-09-20T18:00:42.981Z,23.73
2018-09-20T18:03:10.638Z,23.54
2018-09-20T18:05:38.168Z,23.35
2018-09-20T18:08:05.727Z,23.31
2018-09-20T18:10:33.263Z,23.35
2018-09-20T18:13:00.832Z,23.33
2018-09-20T18:15:28.419Z,23.11
2018-09-20T18:17:56.026Z,23.09
2018-09-20T18:20:23.625Z,22.93
2018-09-20T18:22:51.216Z,23.02
2018-09-20T18:25:18.819Z,23.17
2018-09-20T18:27:46.390Z,23.09
2018-09-20T18:30:13.943Z,23.02
2018-09-20T18:32:41.494Z,22.97
2018-09-20T18:35:09.222Z,22.80
2018-09-20T18:37:37.952Z,22.76
2018-09-20T18:40:05.699Z,22.57
2018-09-20T18:42:33.268Z,22.30
2018-09-20T18:45:00.813Z,22.30
2018-09-20T18:47:28.430Z,22.16
2018-09-20T18:49:56.027Z,22.15
2018-09-20T18:52:23.606Z,22.26
2018-09-20T18:54:51.170Z,22.27
2018-09-20T18:57:18.902Z,22.17
2018-09-20T18:59:46.510Z,21.93
2018-09-20T19:02:14.070Z,21.77
2018-09-20T19:04:41.694Z,21.62
2018-09-20T19:07:09.301Z,21.52
2018-09-20T19:09:36.938Z,21.42
2018-09-20T19:12:04.646Z,21.34
2018-09-20T19:14:32.214Z,21.22
2018-09-20T19:16:59.789Z,21.14
2018-09-20T19:19:27.391Z,21.21
2018-09-20T19:21:54.973Z,21.12
2018-09-20T19:24:22.554Z,21.12
2018-09-20T19:26:50.354Z,21.00
2018-09-20T19:29:17.943Z,20.96
2018-09-20T19:31:46.540Z,20.88
2018-09-20T19:34:14.130Z,20.76
2018-09-20T19:36:41.720Z,20.65
2018-09-20T19:39:10.734Z,20.56
2018-09-20T19:41:38.320Z,20.68
2018-09-20T19:44:05.991Z,20.59
2018-09-20T19:46:33.655Z,20.43
2018-09-20T19:49:01.304Z,20.41
2018-09-20T19:51:28.960Z,20.24
2018-09-20T19:53:56.522Z,20.27
2018-09-20T19:56:24.269Z,20.20
2018-09-20T19:58:52.305Z,20.12
2018-09-20T20:01:19.837Z,20.05
2018-09-20T20:03:47.409Z,19.95
2018-09-20T20:06:14.993Z,19.82
2018-09-20T20:08:42.684Z,19.79
2018-09-20T20:11:10.239Z,19.72
2018-09-20T20:13:37.810Z,19.70
2018-09-20T20:16:05.543Z,19.70
2018-09-20T20:18:33.083Z,19.67
2018-09-20T20:21:00.656Z,19.60
2018-09-20T20:23:28.233Z,19.51
2018-09-20T20:25:55.821Z,19.51
2018-09-20T20:28:23.378Z,19.48
2018-09-20T20:30:50.962Z,19.41
2018-09-20T20:33:19.279Z,19.40
2018-09-20T20:35:46.858Z,19.34
2018-09-20T20:38:14.436Z,19.26
2018-09-20T20:40:42.006Z,19.29
2018-09-20T20:43:09.586Z,19.33
2018-09-20T20:45:37.135Z,19.20
2018-09-20T20:48:04.706Z,19.26
2018-09-20T20:50:32.259Z,19.28
2018-09-20T20:52:59.824Z,19.27
2018-09-20T20:55:27.411Z,19.48
2018-09-20T20:57:54.958Z,19.28
2018-09-20T21:00:22.496Z,19.22
2018-09-20T21:02:50.078Z,19.15
2018-09-20T21:05:17.702Z,19.06
2018-09-20T21:07:45.317Z,19.02
2018-09-20T21:10:12.896Z,19.06
2018-09-20T21:12:40.482Z,19.03
2018-09-20T21:15:08.006Z,19.11
2018-09-20T21:17:35.664Z,19.23
2018-09-20T21:20:03.191Z,19.11
2018-09-20T21:22:30.731Z,19.13
2018-09-20T21:24:58.526Z,19.00
2018-09-20T21:27:26.082Z,18.91
2018-09-20T21:29:53.639Z,18.79
2018-09-20T21:32:21.199Z,18.69
2018-09-20T21:34:48.719Z,18.68
2018-09-20T21:37:16.283Z,18.60
2018-09-20T21:39:43.881Z,18.62
2018-09-20T21:42:11.442Z,18.62
2018-09-20T21:44:38.970Z,18.55
2018-09-20T21:47:06.638Z,18.55
2018-09-20T21:49:34.186Z,18.52
2018-09-20T21:52:01.750Z,18.47
2018-09-20T21:54:29.285Z,18.34
2018-09-20T21:56:56.842Z,18.26
2018-09-20T21:59:24.387Z,18.18
2018-09-20T22:01:57.701Z,18.11
2018-09-20T22:04:25.954Z,18.30
2018-09-20T22:06:53.578Z,18.15
2018-09-20T22:09:21.130Z,18.05
2018-09-20T22:11:48.699Z,18.01
2018-09-20T22:14:16.224Z,18.11
2018-09-20T22:16:43.819Z,18.16
2018-09-20T22:19:11.411Z,18.09
2018-09-20T22:21:38.962Z,17.99
2018-09-20T22:24:06.555Z,17.86
2018-09-20T22:26:34.202Z,17.77
2018-09-20T22:29:01.814Z,17.78
2018-09-20T22:31:29.370Z,17.69
2018-09-20T22:33:57.236Z,17.74
2018-09-20T22:36:25.555Z,17.81
2018-09-20T22:38:53.118Z,17.84
2018-09-20T22:41:20.679Z,17.75
2018-09-20T22:43:48.231Z,17.84
2018-09-20T22:46:15.823Z,17.71
2018-09-20T22:48:43.407Z,17.57
2018-09-20T22:51:10.952Z,17.44
2018-09-20T22:53:38.769Z,17.72
2018-09-20T22:56:06.394Z,17.69
2018-09-20T22:58:34.153Z,17.66
2018-09-20T23:01:01.715Z,17.70
2018-09-20T23:03:29.262Z,17.52
2018-09-20T23:05:56.946Z,17.55
2018-09-20T23:08:24.465Z,17.56
2018-09-20T23:10:52.028Z,17.34
2018-09-20T23:13:19.598Z,17.27
2018-09-20T23:15:47.283Z,17.35
2018-09-20T23:18:14.798Z,17.29
2018-09-20T23:20:42.783Z,17.23
2018-09-20T23:23:10.307Z,17.23
2018-09-20T23:25:37.895Z,17.19
2018-09-20T23:28:05.422Z,17.23
2018-09-20T23:30:32.957Z,17.25
2018-09-20T23:33:00.554Z,17.29
2018-09-20T23:35:28.086Z,17.17
2018-09-20T23:37:55.619Z,17.10
2018-09-20T23:40:23.188Z,17.06
2018-09-20T23:42:50.722Z,17.05
2018-09-20T23:45:18.263Z,17.24
2018-09-20T23:47:45.791Z,17.16
2018-09-20T23:50:13.487Z,17.06
2018-09-20T23:52:41.131Z,16.93
2018-09-20T23:55:08.687Z,16.81
2018-09-20T23:57:36.267Z,16.77
